Delta Virtual Airport Information Service

Santo Domingo Las Americas International Airport

ICAO: MDSD Country: Dominican Republic
Latitude: 18.4297 Longitude: -69.6689
Latest Arrival : JBU1705 (KMCO-MDSD) Latest Departure : JBU830 (2) (MDSD-KBOS)


WX CaptureLIVE
Data provided by noaa.gov | Fetched at 23:07:31

METAR : MDSD 120400Z 00000KT 9999 FEW016 SCT300 25/23 Q1017

TAF : MDSD 112200Z 1200/1300 04007KT 9999 SCT018 BKN300 PROB30 1206/1212 8000 -SH BKN014 SCT070


Runway Data for MDSD
Data provided by openaviationdata.com

Runway ID Mag Var Hdg Length Elevation Surface ILS Freq ILS Id ILS Slope
17 -11 171° 11043 ft 58 ft Asphalt 108.9 ICDO 3
35 -11 351° 11043 ft 58 ft Asphalt -- -- --

Santo Domingo Las Americas International Airport, Dominican Republic
Use only for reference purposes



Not for navigational purposes.